Portada
METAR-TAF:

METAR-TAF

Aeroports :

Biak, Indonèsia

latitud: 01-11S, longitud: 136-07E, altitud: 11 m

Observació

L'informe es va fer fa 11 hores i 32 minuts, a les 11:00 UTC
Vent 3 kt del Nord/Nord-Oest
Temperatura 24°C
Humitat 100%
Pressió 1009 hPa
Visibilitat: 9000 m
Núvols disperses a una alçada de 1800 ft
Cel ennuvolat a una alçada de 10000 ft
pluja

METAR: WABB 111100Z 33003KT 9000 -RA SCT018 BKN100 24/24 Q1009 NOSIG

Hora: 05:32 (22:32 UTC)

Pronòstic

L'informe es va fer fa 5 hores i 32 minuts, a les 17:00 UTC
Pronòstic vàlid del 11 a les 18 UTC al 13 a les 00 UTC
Vent kt del Nord
Visibilitat 10 km o més
Núvols disperses a una alçada de 1800 ft
Evolucionant progressivament
l' 11 a les 22 UTC al 12 a les 00 UTC
Vent 6 kt del Nord-Est
Temporalment
l' 12 a les 00 UTC al 12 a les 04 UTC
Visibilitat: 5000 m
Escasses núvols a una alçada de 1700 ft, Cumulonimbus.
pluja

TAF: WABB 111700Z 1118/1300 00000KT 9999 SCT018 BECMG 1122/1200 04006KT TEMPO 1200/1204 5000 RA FEW017CB

Observacions i pronòstics meteorològics de més de 4000 aeroports (METAR i TAF).

Les estacions disponibles són els punts grocs i vermells al mapa.

Posi el ratolí al punt desitjat per veure el nom de l'estació.

Feu clic per veure les observacions i els pronòstics meteorològics.

Per canviar el mapa: feu clic els botons verds amb una creu de color negre per apropar; al botó verd amb un guió per allunyar la imatge; o en les fletxes verdes per a mapes adjacents.


METAR-TAF: